Terminal Aerodrome Forecast
Issued by NWS

Home | Current Version | Previous Version | Text Only | Print | Product List | Glossary On
Versions: 1 2 3 4 5 6 7 8 9 10 11 12 13 14 15 16
000
FTUS43 KICT 261720
TAFCNU
TAF
KCNU 261720Z 2618/2718 06008KT P6SM VCSH SCT020 BKN080
     FM262200 10006KT P6SM VCTS BKN040CB BKN080
     FM270000 10004KT P6SM SCT080 BKN250
     FM271200 VRB03KT P6SM SCT150=

USA.gov is the U.S. government's official web portal to all federal, state and local government web resources and services.